Hovedside
METAR-TAF:

METAR-TAF

Lufthavner :

Sørkjosen lufthavn

Sørkjosen, Norge

breddegrad: 69-47N, lengdegrad: 020-58E, høyde over havet: 0 m

Gjeldene værobservasjon

Denne rapporten ble laget for 3 timer og 27 minutter siden, klokken 18:50 UTC
Vind 18 kt fra Vest-nordvest, skiftende mellom Vest-sørvest og Nordvest
Temperatur 1°C
Luftfuktighet 75%
Trykk 996 hPa
Sikt 10 km eller mer
Få skyer i en høyde av 1000 ft
Spredte skyer i en høyde av 2300 ft
Brutte skyer i en høyde av 3500 ft
lette snøbyger, regn

METAR: ENSR 241850Z 29011KT 250V320 9999 -SHSNRA FEW010 SCT023 BKN035 01/M03 Q0996 WIND 1119FT 29018KT

Tid: 23:17 (22:17 UTC)


TAF: fraværende

Værobservasjoner og værvarsel for over 4000 flyplasser (METAR- og TAF-rapporter).

Tilgjengelige stasjoner er representert av de røde og gule prikkene på kartet.

Hold musepekeren over prikken for å se navnet på stasjonen.

Klikk så for å se værobservasjoner og -varsler.

For å forandre kartet kan du klikke på den grønne knappen med svart kryss for å zoome inn, på den grønne knappen med strek for å zoome ut, eller på de grønne pilene for å se tilstøtende kart.


METAR-TAF: